createdAt,value
2023-08-21T00:00:56.810Z,19.93
2023-08-21T00:03:29.219Z,17.75
2023-08-21T00:06:01.652Z,19.16
2023-08-21T00:08:34.262Z,18.34
2023-08-21T00:11:06.650Z,18.28
2023-08-21T00:13:38.993Z,19.60
2023-08-21T00:16:13.913Z,19.24
2023-08-21T00:18:46.662Z,18.01
2023-08-21T00:21:19.124Z,19.61
2023-08-21T00:23:51.638Z,20.50
2023-08-21T00:26:24.050Z,19.40
2023-08-21T00:28:56.660Z,19.67
2023-08-21T00:31:31.668Z,20.10
2023-08-21T00:34:04.018Z,22.36
2023-08-21T00:36:36.564Z,20.76
2023-08-21T00:39:09.380Z,18.29
2023-08-21T00:41:41.792Z,20.54
2023-08-21T00:44:14.254Z,21.59
2023-08-21T00:46:49.628Z,24.67
2023-08-21T00:49:22.253Z,25.01
2023-08-21T00:51:56.649Z,27.31
2023-08-21T00:54:29.368Z,29.33
2023-08-21T00:57:01.871Z,23.59
2023-08-21T00:59:35.972Z,22.01
2023-08-21T01:02:11.056Z,21.12
2023-08-21T01:04:43.525Z,23.49
2023-08-21T01:07:16.200Z,23.24
2023-08-21T01:09:57.845Z,23.11
2023-08-21T01:12:40.230Z,18.59
2023-08-21T01:15:14.079Z,22.14
2023-08-21T01:17:51.136Z,20.80
2023-08-21T01:20:25.119Z,20.60
2023-08-21T01:22:57.379Z,21.38
2023-08-21T01:25:32.392Z,20.51
2023-08-21T01:28:04.960Z,18.74
2023-08-21T01:30:40.539Z,18.40
2023-08-21T01:33:20.652Z,19.36
2023-08-21T01:35:54.302Z,20.70
2023-08-21T01:38:26.721Z,20.50
2023-08-21T01:41:02.059Z,20.49
2023-08-21T01:43:34.513Z,21.36
2023-08-21T01:46:07.458Z,19.57
2023-08-21T01:48:40.210Z,20.09
2023-08-21T01:51:12.795Z,21.86
2023-08-21T01:53:45.111Z,21.26
2023-08-21T01:56:20.024Z,24.69
2023-08-21T01:58:52.417Z,24.64
2023-08-21T02:01:24.797Z,23.21
2023-08-21T02:03:57.115Z,22.05
2023-08-21T02:06:29.382Z,20.56
2023-08-21T02:09:01.911Z,19.52
2023-08-21T02:11:36.838Z,19.01
2023-08-21T02:14:09.139Z,21.00
2023-08-21T02:16:41.486Z,21.41
2023-08-21T02:19:14.107Z,21.04
2023-08-21T02:21:46.435Z,20.06
2023-08-21T02:24:18.782Z,21.15
2023-08-21T02:26:53.758Z,21.73
2023-08-21T02:29:26.597Z,20.37
2023-08-21T02:32:00.209Z,22.19
2023-08-21T02:34:32.556Z,22.54
2023-08-21T02:37:06.339Z,21.80
2023-08-21T02:39:39.842Z,21.00
2023-08-21T02:42:14.948Z,21.94
2023-08-21T02:44:48.117Z,20.64
2023-08-21T02:47:20.450Z,20.40
2023-08-21T02:49:53.117Z,21.08
2023-08-21T02:52:25.398Z,21.69
2023-08-21T02:54:57.778Z,20.16
2023-08-21T02:57:33.484Z,20.84
2023-08-21T03:00:12.383Z,20.39
2023-08-21T03:02:45.621Z,17.88
2023-08-21T03:05:18.230Z,20.04
2023-08-21T03:07:50.488Z,20.51
2023-08-21T03:10:24.886Z,21.78
2023-08-21T03:13:00.291Z,21.00
2023-08-21T03:15:32.905Z,20.37
2023-08-21T03:18:05.430Z,18.26
2023-08-21T03:20:37.888Z,19.44
2023-08-21T03:23:10.263Z,20.49
2023-08-21T03:25:42.580Z,21.26
2023-08-21T03:28:17.549Z,21.41
2023-08-21T03:30:50.184Z,20.46
2023-08-21T03:33:22.565Z,19.79
2023-08-21T03:35:59.142Z,18.95
2023-08-21T03:38:31.457Z,18.74
2023-08-21T03:41:03.888Z,18.52
2023-08-21T03:43:38.793Z,19.80
2023-08-21T03:46:11.218Z,20.95
2023-08-21T03:48:43.741Z,18.97
2023-08-21T03:51:16.150Z,18.41
2023-08-21T03:53:48.500Z,19.51
2023-08-21T03:56:20.888Z,20.96
2023-08-21T03:58:56.071Z,20.86
2023-08-21T04:01:28.467Z,19.81
2023-08-21T04:04:00.862Z,19.37
2023-08-21T04:06:33.150Z,22.29
2023-08-21T04:09:07.544Z,20.76
2023-08-21T04:11:39.885Z,21.56
2023-08-21T04:14:14.905Z,19.76
2023-08-21T04:16:47.284Z,19.17
2023-08-21T04:19:20.017Z,19.84
2023-08-21T04:21:52.336Z,20.08
2023-08-21T04:24:24.639Z,20.79
2023-08-21T04:26:57.031Z,18.56
2023-08-21T04:29:32.299Z,19.05
2023-08-21T04:32:04.694Z,18.56
2023-08-21T04:34:37.904Z,17.91
2023-08-21T04:37:13.007Z,19.51
2023-08-21T04:39:47.040Z,21.24
2023-08-21T04:42:19.378Z,20.53
2023-08-21T04:44:54.808Z,19.81
2023-08-21T04:47:29.334Z,20.41
2023-08-21T04:50:02.539Z,19.31
2023-08-21T04:52:34.799Z,20.59
2023-08-21T04:55:07.272Z,22.14
2023-08-21T04:57:39.554Z,22.59
2023-08-21T05:00:17.115Z,23.25
2023-08-21T05:02:49.461Z,22.86
2023-08-21T05:05:21.941Z,23.53
2023-08-21T05:07:54.258Z,23.59
2023-08-21T05:10:26.769Z,22.39
2023-08-21T05:13:01.981Z,22.25
2023-08-21T05:15:36.824Z,21.65
2023-08-21T05:18:09.697Z,23.88
2023-08-21T05:20:44.296Z,22.16
2023-08-21T05:23:16.661Z,23.74
2023-08-21T05:25:50.054Z,21.82
2023-08-21T05:28:22.438Z,19.85
2023-08-21T05:30:57.354Z,20.19
2023-08-21T05:33:29.758Z,20.18
2023-08-21T05:36:02.720Z,21.69
2023-08-21T05:38:35.019Z,22.12
2023-08-21T05:41:07.572Z,23.49
2023-08-21T05:43:40.818Z,22.99
2023-08-21T05:46:15.783Z,22.46
2023-08-21T05:48:48.691Z,21.49
2023-08-21T05:51:21.161Z,25.04
2023-08-21T05:53:53.554Z,23.85
2023-08-21T05:56:26.954Z,24.24
2023-08-21T05:59:00.666Z,24.80
2023-08-21T06:01:35.592Z,25.53
2023-08-21T06:04:08.444Z,26.15
2023-08-21T06:06:41.043Z,27.02
2023-08-21T06:09:13.773Z,29.36
2023-08-21T06:11:46.040Z,28.19
2023-08-21T06:14:18.424Z,28.20
2023-08-21T06:16:53.274Z,27.08
2023-08-21T06:19:25.679Z,29.40
2023-08-21T06:21:58.219Z,29.55
2023-08-21T06:24:31.295Z,29.12
2023-08-21T06:27:05.998Z,30.02
2023-08-21T06:29:41.730Z,30.12
2023-08-21T06:32:17.713Z,29.51
2023-08-21T06:34:51.515Z,30.79
2023-08-21T06:37:23.817Z,28.87
2023-08-21T06:39:56.341Z,28.66
2023-08-21T06:42:29.052Z,29.14
2023-08-21T06:45:01.325Z,25.86
2023-08-21T06:47:36.387Z,27.06
2023-08-21T06:50:09.413Z,25.61
2023-08-21T06:52:41.824Z,26.46
2023-08-21T06:55:14.358Z,23.95
2023-08-21T06:57:46.659Z,29.42
2023-08-21T07:00:19.783Z,24.94
2023-08-21T07:02:55.164Z,27.21
2023-08-21T07:05:27.638Z,26.86
2023-08-21T07:07:59.958Z,21.54
2023-08-21T07:10:33.035Z,22.54
2023-08-21T07:13:05.437Z,23.66
2023-08-21T07:15:37.833Z,24.30
2023-08-21T07:18:13.087Z,20.71
2023-08-21T07:20:45.719Z,22.28
2023-08-21T07:23:18.617Z,22.88
2023-08-21T07:25:50.995Z,21.24
2023-08-21T07:28:23.464Z,19.01
2023-08-21T07:31:00.692Z,19.64
2023-08-21T07:33:35.597Z,20.26
2023-08-21T07:36:10.552Z,17.46
2023-08-21T07:38:43.097Z,19.16
2023-08-21T07:41:17.087Z,18.44
2023-08-21T07:43:50.138Z,20.01
2023-08-21T07:46:22.484Z,21.63
2023-08-21T07:48:58.400Z,20.06
2023-08-21T07:51:30.722Z,19.54
2023-08-21T07:54:03.037Z,20.69
2023-08-21T07:56:36.881Z,24.38
2023-08-21T07:59:09.385Z,24.99
2023-08-21T08:01:41.677Z,18.31
2023-08-21T08:04:16.801Z,20.20
2023-08-21T08:06:49.136Z,20.49
2023-08-21T08:09:22.313Z,19.94
2023-08-21T08:11:54.583Z,21.96
2023-08-21T08:14:26.974Z,23.25
2023-08-21T08:16:59.276Z,23.40
2023-08-21T08:19:36.454Z,18.29
2023-08-21T08:22:08.949Z,14.44
2023-08-21T08:24:51.932Z,14.21
2023-08-21T08:27:24.212Z,14.70
2023-08-21T08:29:56.947Z,14.22
2023-08-21T08:32:29.945Z,15.08
2023-08-21T08:35:05.017Z,13.75
2023-08-21T08:37:37.351Z,12.48
2023-08-21T08:40:11.727Z,12.60
2023-08-21T08:42:44.655Z,14.08
2023-08-21T08:45:19.388Z,13.30
2023-08-21T08:47:52.652Z,12.11
2023-08-21T08:50:32.823Z,13.68
2023-08-21T08:53:16.113Z,14.47
2023-08-21T08:55:50.743Z,13.70
2023-08-21T08:58:23.123Z,12.96
2023-08-21T09:00:56.078Z,12.06
2023-08-21T09:03:28.882Z,12.13
2023-08-21T09:06:04.093Z,12.44
2023-08-21T09:08:36.616Z,14.08
2023-08-21T09:11:08.960Z,13.79
2023-08-21T09:13:42.704Z,14.34
2023-08-21T09:16:15.616Z,14.42
2023-08-21T09:18:53.197Z,16.52
2023-08-21T09:21:30.145Z,15.80
2023-08-21T09:24:04.684Z,14.76
2023-08-21T09:26:37.617Z,14.34
2023-08-21T09:29:10.435Z,14.06
2023-08-21T09:31:45.027Z,13.31
2023-08-21T09:34:17.557Z,14.04
2023-08-21T09:36:59.967Z,12.89
2023-08-21T09:39:39.013Z,12.88
2023-08-21T09:42:34.512Z,12.49
2023-08-21T09:45:07.145Z,13.70
2023-08-21T09:47:40.739Z,14.02
2023-08-21T09:50:14.419Z,11.79
2023-08-21T09:52:51.007Z,12.67
2023-08-21T09:55:23.962Z,13.41
2023-08-21T09:57:59.873Z,11.97
2023-08-21T10:00:38.608Z,13.95
2023-08-21T10:03:13.402Z,12.89
2023-08-21T10:05:47.119Z,12.46
2023-08-21T10:08:29.789Z,14.32
2023-08-21T10:11:04.711Z,14.52
2023-08-21T10:13:39.751Z,17.64
2023-08-21T10:16:13.490Z,16.50
2023-08-21T10:18:50.632Z,17.96
2023-08-21T10:21:28.751Z,16.68
2023-08-21T10:24:06.003Z,14.13
2023-08-21T10:26:47.721Z,11.81
2023-08-21T10:29:20.432Z,10.95
2023-08-21T10:32:05.027Z,12.34
2023-08-21T10:34:39.710Z,11.84
2023-08-21T10:37:14.240Z,12.41
2023-08-21T10:40:04.001Z,14.26
2023-08-21T10:42:46.186Z,13.04
2023-08-21T10:45:18.941Z,13.20
2023-08-21T10:47:51.951Z,11.39
2023-08-21T10:50:24.556Z,11.46
2023-08-21T10:52:58.882Z,14.25
2023-08-21T10:55:34.919Z,15.74
2023-08-21T10:58:12.672Z,13.42
2023-08-21T11:00:46.146Z,11.18
2023-08-21T11:03:20.751Z,9.76
2023-08-21T11:06:06.693Z,10.86
2023-08-21T11:08:39.918Z,10.15
2023-08-21T11:11:16.387Z,10.29
2023-08-21T11:13:58.281Z,10.29
2023-08-21T11:16:30.795Z,9.84
2023-08-21T11:19:08.510Z,9.34
2023-08-21T11:21:40.806Z,10.84
2023-08-21T11:24:13.765Z,12.02
2023-08-21T11:26:48.917Z,9.96
2023-08-21T11:29:22.440Z,8.09
2023-08-21T11:31:54.944Z,7.94
2023-08-21T11:34:27.401Z,8.14
2023-08-21T11:37:00.186Z,8.69
2023-08-21T11:39:43.228Z,8.48
2023-08-21T11:42:19.335Z,8.13
2023-08-21T11:44:54.684Z,8.66
2023-08-21T11:47:28.397Z,8.69
2023-08-21T11:50:01.164Z,7.71
2023-08-21T11:52:39.592Z,8.57
2023-08-21T11:55:14.828Z,7.74
2023-08-21T11:57:57.436Z,11.16
2023-08-21T12:00:35.431Z,10.66
2023-08-21T12:03:09.917Z,8.74
2023-08-21T12:05:48.769Z,10.39
2023-08-21T12:08:21.018Z,8.62
2023-08-21T12:10:56.356Z,9.24
2023-08-21T12:13:32.657Z,9.26
2023-08-21T12:16:06.541Z,11.75
2023-08-21T12:18:39.073Z,11.06
2023-08-21T12:21:11.792Z,10.39
2023-08-21T12:23:44.115Z,10.64
2023-08-21T12:26:21.782Z,11.14
2023-08-21T12:28:56.917Z,9.91
2023-08-21T12:31:29.271Z,9.16
2023-08-21T12:34:01.630Z,9.37
2023-08-21T12:36:34.019Z,10.67
2023-08-21T12:39:06.772Z,13.39
2023-08-21T12:41:39.119Z,14.69
2023-08-21T12:44:14.087Z,14.94
2023-08-21T12:46:46.549Z,12.25
2023-08-21T12:49:19.237Z,13.01
2023-08-21T12:51:51.667Z,13.51
2023-08-21T12:54:24.097Z,12.96
2023-08-21T12:56:57.886Z,12.11
2023-08-21T12:59:33.122Z,13.40
2023-08-21T13:02:05.674Z,12.52
2023-08-21T13:04:39.210Z,13.57
2023-08-21T13:07:11.603Z,11.97
2023-08-21T13:09:44.351Z,16.51
2023-08-21T13:12:17.844Z,18.64
2023-08-21T13:14:52.827Z,19.66
2023-08-21T13:17:25.324Z,17.81
2023-08-21T13:19:57.918Z,18.87
2023-08-21T13:22:30.203Z,20.29
2023-08-21T13:25:02.474Z,17.91
2023-08-21T13:27:35.011Z,20.30
2023-08-21T13:30:11.942Z,16.56
2023-08-21T13:32:44.410Z,15.76
2023-08-21T13:35:18.149Z,13.01
2023-08-21T13:37:50.820Z,11.51
2023-08-21T13:40:24.395Z,10.51
2023-08-21T13:43:02.675Z,10.10
2023-08-21T13:45:38.056Z,11.24
2023-08-21T13:48:11.009Z,11.16
2023-08-21T13:50:43.780Z,11.54
2023-08-21T13:53:16.107Z,9.69
2023-08-21T13:55:48.425Z,9.04
2023-08-21T13:58:20.868Z,9.86
2023-08-21T14:00:57.126Z,10.14
2023-08-21T14:03:29.536Z,8.83
2023-08-21T14:06:01.822Z,10.58
2023-08-21T14:08:34.103Z,9.72
2023-08-21T14:11:06.546Z,10.11
2023-08-21T14:13:38.853Z,9.17
2023-08-21T14:16:14.278Z,10.01
2023-08-21T14:18:46.873Z,10.13
2023-08-21T14:21:19.179Z,10.76
2023-08-21T14:23:51.406Z,11.27
2023-08-21T14:26:23.663Z,9.58
2023-08-21T14:28:56.177Z,8.87
2023-08-21T14:31:31.219Z,9.29
2023-08-21T14:34:03.933Z,9.24
2023-08-21T14:36:36.524Z,8.98
2023-08-21T14:39:09.064Z,8.05
2023-08-21T14:41:41.662Z,10.24
2023-08-21T14:44:16.257Z,9.49
2023-08-21T14:46:51.554Z,9.61
2023-08-21T14:49:24.457Z,9.43
2023-08-21T14:51:56.876Z,8.28
2023-08-21T14:54:29.474Z,8.68
2023-08-21T14:57:01.771Z,8.65
2023-08-21T14:59:34.552Z,8.41
2023-08-21T15:02:09.575Z,9.33
2023-08-21T15:04:42.063Z,8.87
2023-08-21T15:07:14.559Z,9.63
2023-08-21T15:09:47.074Z,10.33
2023-08-21T15:12:20.200Z,8.84
2023-08-21T15:14:52.731Z,10.41
2023-08-21T15:17:28.992Z,9.04
2023-08-21T15:20:01.730Z,7.89
2023-08-21T15:22:34.045Z,8.49
2023-08-21T15:25:06.438Z,9.29
2023-08-21T15:27:39.095Z,8.50
2023-08-21T15:30:15.471Z,9.65
2023-08-21T15:32:50.863Z,9.11
2023-08-21T15:35:23.510Z,9.39
2023-08-21T15:37:56.177Z,8.81
2023-08-21T15:40:28.900Z,8.19
2023-08-21T15:43:03.964Z,8.24
2023-08-21T15:45:36.288Z,9.33
2023-08-21T15:48:11.611Z,8.99
2023-08-21T15:50:44.464Z,8.75
2023-08-21T15:53:17.676Z,9.58
2023-08-21T15:55:49.902Z,8.72
2023-08-21T15:58:22.318Z,9.69
2023-08-21T16:00:54.782Z,9.46
2023-08-21T16:03:29.869Z,10.23
2023-08-21T16:06:02.172Z,9.65
2023-08-21T16:08:34.640Z,9.12
2023-08-21T16:11:07.068Z,9.19
2023-08-21T16:13:39.338Z,9.86
2023-08-21T16:16:11.728Z,9.47
2023-08-21T16:18:47.917Z,8.71
2023-08-21T16:21:20.240Z,9.29
2023-08-21T16:23:52.529Z,8.50
2023-08-21T16:26:24.830Z,9.73
2023-08-21T16:28:57.566Z,9.47
2023-08-21T16:31:30.075Z,9.61
2023-08-21T16:34:05.079Z,9.87
2023-08-21T16:36:37.526Z,10.27
2023-08-21T16:39:10.367Z,9.25
2023-08-21T16:41:42.741Z,9.04
2023-08-21T16:44:15.051Z,8.69
2023-08-21T16:46:47.314Z,9.96
2023-08-21T16:49:25.697Z,9.41
2023-08-21T16:51:57.980Z,9.83
2023-08-21T16:54:30.382Z,9.79
2023-08-21T16:57:03.012Z,10.16
2023-08-21T16:59:35.465Z,10.39
2023-08-21T17:02:08.939Z,9.59
2023-08-21T17:04:43.877Z,8.89
2023-08-21T17:07:16.100Z,10.32
2023-08-21T17:09:50.711Z,11.93
2023-08-21T17:12:23.811Z,9.76
2023-08-21T17:14:56.188Z,10.33
2023-08-21T17:17:28.613Z,11.09
2023-08-21T17:20:04.133Z,12.20
2023-08-21T17:22:36.494Z,12.45
2023-08-21T17:25:15.040Z,12.35
2023-08-21T17:27:48.098Z,11.47
2023-08-21T17:30:20.998Z,11.76
2023-08-21T17:32:54.407Z,12.64
2023-08-21T17:35:30.550Z,12.23
2023-08-21T17:38:03.021Z,13.58
2023-08-21T17:40:35.788Z,13.39
2023-08-21T17:43:09.032Z,13.60
2023-08-21T17:45:41.980Z,13.14
2023-08-21T17:48:14.529Z,13.46
2023-08-21T17:50:51.662Z,13.53
2023-08-21T17:53:24.298Z,12.19
2023-08-21T17:55:57.107Z,13.31
2023-08-21T17:58:33.098Z,13.61
2023-08-21T18:01:05.597Z,12.94
2023-08-21T18:03:37.886Z,13.42
2023-08-21T18:06:13.731Z,12.35
2023-08-21T18:08:46.457Z,14.52
2023-08-21T18:11:18.948Z,12.01
2023-08-21T18:13:51.966Z,13.41
2023-08-21T18:16:25.821Z,13.61
2023-08-21T18:18:58.548Z,13.52
2023-08-21T18:21:34.709Z,12.44
2023-08-21T18:24:07.149Z,13.97
2023-08-21T18:26:42.615Z,14.66
2023-08-21T18:29:14.962Z,12.53
2023-08-21T18:31:47.299Z,14.89
2023-08-21T18:34:19.576Z,15.87
2023-08-21T18:36:54.468Z,16.11
2023-08-21T18:39:27.016Z,14.86
2023-08-21T18:41:59.427Z,14.87
2023-08-21T18:44:31.832Z,15.80
2023-08-21T18:47:04.628Z,15.06
2023-08-21T18:49:37.397Z,17.57
2023-08-21T18:52:12.447Z,16.88
2023-08-21T18:54:44.712Z,16.65
2023-08-21T18:57:16.919Z,17.14
2023-08-21T18:59:50.644Z,16.42
2023-08-21T19:02:23.973Z,16.79
2023-08-21T19:04:56.273Z,17.36
2023-08-21T19:07:31.340Z,16.83
2023-08-21T19:10:06.105Z,18.05
2023-08-21T19:12:38.443Z,19.70
2023-08-21T19:15:12.371Z,21.32
2023-08-21T19:17:44.772Z,21.01
2023-08-21T19:20:17.762Z,20.69
2023-08-21T19:22:54.066Z,20.37
2023-08-21T19:25:26.720Z,18.95
2023-08-21T19:27:59.182Z,20.01
2023-08-21T19:30:31.585Z,19.84
2023-08-21T19:33:03.951Z,20.14
2023-08-21T19:35:37.979Z,17.74
2023-08-21T19:38:14.754Z,19.41
2023-08-21T19:40:48.611Z,18.35
2023-08-21T19:43:21.119Z,17.49
2023-08-21T19:45:59.280Z,17.99
2023-08-21T19:48:31.689Z,19.09
2023-08-21T19:51:04.162Z,18.24
2023-08-21T19:53:39.070Z,20.43
2023-08-21T19:56:11.390Z,19.34
2023-08-21T19:58:44.929Z,18.53
2023-08-21T20:01:17.375Z,20.30
2023-08-21T20:03:50.188Z,20.34
2023-08-21T20:06:22.621Z,19.24
2023-08-21T20:08:57.797Z,21.67
2023-08-21T20:11:30.452Z,19.69
2023-08-21T20:14:02.893Z,21.01
2023-08-21T20:16:35.293Z,22.05
2023-08-21T20:19:10.140Z,23.14
2023-08-21T20:21:42.593Z,20.89
2023-08-21T20:24:18.762Z,22.89
2023-08-21T20:26:51.050Z,20.85
2023-08-21T20:29:24.197Z,22.18
2023-08-21T20:31:56.466Z,21.34
2023-08-21T20:34:28.833Z,21.07
2023-08-21T20:37:01.281Z,20.87
2023-08-21T20:39:36.784Z,19.76
2023-08-21T20:42:10.191Z,21.33
2023-08-21T20:44:42.652Z,22.06
2023-08-21T20:47:15.531Z,22.86
2023-08-21T20:49:48.240Z,23.54
2023-08-21T20:52:20.538Z,23.19
2023-08-21T20:54:55.475Z,23.88
2023-08-21T20:57:27.791Z,23.69
2023-08-21T21:00:00.368Z,23.56
2023-08-21T21:02:32.765Z,23.49
2023-08-21T21:05:05.432Z,24.91
2023-08-21T21:07:39.567Z,24.48
2023-08-21T21:10:16.065Z,24.57
2023-08-21T21:12:48.420Z,25.42
2023-08-21T21:15:20.785Z,23.71
2023-08-21T21:17:53.350Z,25.76
2023-08-21T21:20:25.794Z,27.50
2023-08-21T21:22:58.207Z,26.59
2023-08-21T21:25:33.198Z,27.97
2023-08-21T21:28:05.694Z,27.66
2023-08-21T21:30:38.280Z,26.74
2023-08-21T21:33:10.585Z,27.09
2023-08-21T21:35:43.882Z,26.64
2023-08-21T21:38:16.148Z,26.01
2023-08-21T21:40:51.217Z,25.46
2023-08-21T21:43:24.840Z,24.41
2023-08-21T21:46:01.323Z,25.89
2023-08-21T21:48:33.870Z,26.74
2023-08-21T21:51:09.098Z,27.64
2023-08-21T21:53:41.361Z,24.79
2023-08-21T21:56:16.511Z,26.96
2023-08-21T21:58:50.390Z,25.66
2023-08-21T22:01:22.771Z,24.74
2023-08-21T22:03:55.394Z,27.01
2023-08-21T22:06:27.751Z,27.89
2023-08-21T22:09:00.203Z,27.91
2023-08-21T22:11:35.057Z,27.85
2023-08-21T22:14:07.353Z,26.30
2023-08-21T22:16:39.675Z,25.59
2023-08-21T22:19:12.503Z,26.18
2023-08-21T22:21:46.660Z,26.14
2023-08-21T22:24:19.029Z,24.86
2023-08-21T22:26:53.973Z,25.16
2023-08-21T22:29:26.569Z,26.44
2023-08-21T22:31:58.865Z,25.06
2023-08-21T22:34:31.257Z,24.68
2023-08-21T22:37:03.606Z,26.12
2023-08-21T22:39:36.153Z,27.26
2023-08-21T22:42:11.576Z,28.36
2023-08-21T22:44:43.932Z,29.58
2023-08-21T22:47:16.330Z,28.77
2023-08-21T22:49:48.856Z,29.38
2023-08-21T22:52:21.173Z,29.54
2023-08-21T22:54:53.705Z,29.34
2023-08-21T22:57:28.945Z,26.61
2023-08-21T23:00:01.404Z,27.96
2023-08-21T23:02:33.708Z,27.48
2023-08-21T23:05:06.866Z,30.08
2023-08-21T23:07:39.728Z,28.88
2023-08-21T23:10:13.315Z,30.19
2023-08-21T23:12:48.214Z,30.91
2023-08-21T23:15:20.687Z,31.14
2023-08-21T23:17:53.253Z,28.94
2023-08-21T23:20:26.416Z,28.50
2023-08-21T23:22:58.660Z,30.34
2023-08-21T23:25:30.980Z,27.82
2023-08-21T23:28:05.918Z,28.65
2023-08-21T23:30:41.902Z,28.95
2023-08-21T23:33:14.216Z,28.91
2023-08-21T23:35:46.643Z,27.57
2023-08-21T23:38:19.105Z,28.69
2023-08-21T23:40:51.820Z,28.05
2023-08-21T23:43:27.558Z,26.70
2023-08-21T23:45:59.991Z,28.60
2023-08-21T23:48:32.808Z,29.41
2023-08-21T23:51:05.616Z,29.74
2023-08-21T23:53:38.006Z,28.15
2023-08-21T23:56:11.547Z,28.09
2023-08-21T23:58:47.038Z,28.06
